Time;durP1;ratioP1;P1;durP2;ratioP2;P2;SDS_P1;SDS_P2;PMS_P1;PMS_P2;Temp;Humidity;BMP_temperature;BMP_pressure;BME280_temperature;BME280_humidity;BME280_pressure;Samples;Min_cycle;Max_cycle;Signal;HPM_P1;HPM_P2
2023/07/06 00:00:16;;;;;;;11.63;8.95;;;;;;;18.38;78.48;94721.16;5065464;28;20460;-74
2023/07/06 00:02:41;;;;;;;11.20;9.18;;;;;;;18.45;78.56;94743.13;5049928;28;20039;-74
2023/07/06 00:05:08;;;;;;;11.05;9.38;;;;;;;18.44;78.81;94737.06;5054889;28;20516;-74
2023/07/06 00:07:34;;;;;;;10.48;9.38;;;;;;;18.54;78.18;94726.28;5055820;28;20071;-74
2023/07/06 00:10:00;;;;;;;10.43;7.85;;;;;;;18.50;77.52;94731.09;5074582;28;20406;-74
2023/07/06 00:12:25;;;;;;;8.55;7.40;;;;;;;18.60;77.12;94732.66;5069844;28;20033;-74
2023/07/06 00:14:51;;;;;;;10.10;8.05;;;;;;;18.57;77.42;94725.13;5055081;28;20106;-74
2023/07/06 00:17:17;;;;;;;9.43;7.47;;;;;;;18.41;77.31;94715.53;5082407;28;20051;-74
2023/07/06 00:19:43;;;;;;;9.52;8.25;;;;;;;18.51;77.75;94727.47;5071634;28;20429;-74
2023/07/06 00:22:09;;;;;;;8.40;7.57;;;;;;;18.47;77.14;94736.72;5089911;28;20038;-74
2023/07/06 00:24:35;;;;;;;9.18;7.60;;;;;;;18.39;77.57;94726.25;5075617;28;20154;-74
2023/07/06 00:27:01;;;;;;;10.05;7.60;;;;;;;18.35;77.90;94726.78;5094051;28;20036;-74
2023/07/06 00:29:33;;;;;;;11.65;7.97;;;;;;;18.26;78.22;94721.59;5089463;28;20417;-74
2023/07/06 00:32:15;;;;;;;10.50;7.75;;;;;;;18.27;78.33;94730.28;5076324;28;20032;-74
2023/07/06 00:34:41;;;;;;;10.82;8.13;;;;;;;18.26;78.66;94723.41;5077619;28;20516;-74
2023/07/06 00:37:07;;;;;;;9.57;7.93;;;;;;;18.25;78.65;94706.81;5078357;28;20053;-74
2023/07/06 00:39:32;;;;;;;9.93;8.73;;;;;;;18.18;78.66;94720.84;5073688;28;20245;-74
2023/07/06 00:41:58;;;;;;;10.60;9.10;;;;;;;18.07;79.50;94724.69;5092378;28;20478;-74
2023/07/06 00:44:50;;;;;;;12.50;9.20;;;;;;;18.21;78.59;94721.28;5087066;28;20020;-74
2023/07/06 00:47:23;;;;;;;10.77;8.68;;;;;;;18.29;78.56;94720.41;5073114;28;20044;-74
2023/07/06 00:49:48;;;;;;;11.02;8.88;;;;;;;18.25;78.15;94717.31;5092146;28;20034;-74
2023/07/06 00:52:15;;;;;;;9.48;7.97;;;;;;;18.30;78.02;94715.00;5077011;28;20032;-74
2023/07/06 00:54:40;;;;;;;10.18;8.20;;;;;;;18.39;78.53;94707.84;5071561;28;20051;-74
2023/07/06 00:57:08;;;;;;;9.23;8.32;;;;;;;18.34;77.92;94715.44;5038402;28;20566;-74
2023/07/06 00:59:34;;;;;;;9.70;8.45;;;;;;;18.27;78.00;94707.44;5058910;28;20044;-74
2023/07/06 01:01:59;;;;;;;9.02;7.97;;;;;;;18.41;77.70;94702.41;5075109;28;20028;-74
2023/07/06 01:04:25;;;;;;;9.05;8.13;;;;;;;18.29;77.61;94702.81;5069966;28;20033;-74
2023/07/06 01:06:51;;;;;;;11.30;8.88;;;;;;;18.32;77.25;94696.41;5060698;28;20141;-74
2023/07/06 01:09:19;;;;;;;9.77;8.77;;;;;;;18.30;77.55;94709.72;5071349;28;20062;-74
2023/07/06 01:11:45;;;;;;;9.65;8.68;;;;;;;18.29;77.43;94713.34;5071323;28;20024;-74
2023/07/06 01:14:13;;;;;;;9.57;7.80;;;;;;;18.16;78.08;94704.41;5069826;28;20421;-74
2023/07/06 01:16:55;;;;;;;9.77;8.32;;;;;;;18.23;77.96;94708.78;5073744;28;20612;-74
2023/07/06 01:19:55;;;;;;;11.52;8.55;;;;;;;18.14;78.17;94699.34;5073765;28;20100;-74
2023/07/06 01:22:42;;;;;;;10.90;9.23;;;;;;;18.06;78.15;94707.28;5085376;28;20448;-74
2023/07/06 01:25:35;;;;;;;11.95;8.75;;;;;;;18.01;78.48;94704.38;5091339;28;20074;-74
2023/07/06 01:28:15;;;;;;;9.55;8.55;;;;;;;18.10;77.86;94708.56;5092491;28;20188;-74
2023/07/06 01:30:49;;;;;;;9.63;8.40;;;;;;;18.14;77.68;94698.53;5085673;28;20025;-74
2023/07/06 01:33:19;;;;;;;9.63;8.63;;;;;;;18.18;77.58;94697.16;5072926;28;20036;-74
2023/07/06 01:35:50;;;;;;;9.73;8.73;;;;;;;18.15;77.55;94689.66;5053863;28;20031;-73
2023/07/06 01:38:15;;;;;;;9.02;7.95;;;;;;;18.16;77.80;94691.25;5065282;28;20039;-74
2023/07/06 01:40:42;;;;;;;9.27;7.95;;;;;;;18.11;77.96;94678.66;5053004;28;20021;-74
2023/07/06 01:43:07;;;;;;;8.27;7.47;;;;;;;18.16;77.80;94686.00;5078807;28;20028;-74
2023/07/06 01:45:33;;;;;;;8.63;7.80;;;;;;;18.15;77.89;94679.13;5074078;28;20387;-74
2023/07/06 01:48:01;;;;;;;10.18;8.27;;;;;;;18.13;78.15;94686.38;5072132;28;20063;-74
2023/07/06 01:50:59;;;;;;;8.52;7.57;;;;;;;18.21;77.81;94683.66;5053947;28;20025;-75
2023/07/06 01:53:31;;;;;;;9.98;8.05;;;;;;;18.20;77.88;94687.31;5062801;28;20048;-74
2023/07/06 01:56:04;;;;;;;7.78;6.97;;;;;;;18.09;78.45;94702.50;5038331;28;20494;-74
2023/07/06 01:58:34;;;;;;;9.13;7.70;;;;;;;18.01;78.30;94693.84;5037445;28;20032;-75
2023/07/06 02:01:03;;;;;;;9.30;7.78;;;;;;;17.93;78.47;94688.66;5072663;28;20032;-74
2023/07/06 02:03:29;;;;;;;8.68;7.78;;;;;;;17.98;78.59;94684.50;5055116;28;20033;-74
2023/07/06 02:05:54;;;;;;;9.07;7.32;;;;;;;17.98;78.36;94678.44;5088653;28;20714;-74
2023/07/06 02:08:19;;;;;;;9.60;7.38;;;;;;;17.93;78.63;94689.47;5085559;28;20032;-74
2023/07/06 02:10:46;;;;;;;8.40;7.07;;;;;;;17.97;78.71;94685.50;5088495;28;20039;-74
2023/07/06 02:13:12;;;;;;;8.18;7.30;;;;;;;17.95;78.76;94694.56;5064940;28;20033;-74
2023/07/06 02:15:40;;;;;;;9.77;6.93;;;;;;;17.83;78.88;94681.81;5070696;28;20498;-74
2023/07/06 02:18:05;;;;;;;8.63;6.53;;;;;;;17.72;79.17;94674.31;5089719;28;20029;-74
2023/07/06 02:20:31;;;;;;;8.93;7.18;;;;;;;17.74;79.08;94663.63;5072418;28;20036;-75
2023/07/06 02:22:56;;;;;;;8.43;6.90;;;;;;;17.90;78.66;94679.31;5072405;28;20036;-75
2023/07/06 02:25:22;;;;;;;7.93;7.13;;;;;;;17.94;78.70;94674.50;5073258;28;20027;-75
2023/07/06 02:27:49;;;;;;;9.30;7.22;;;;;;;17.84;78.78;94670.31;5072989;28;20414;-74
2023/07/06 02:30:14;;;;;;;8.45;7.15;;;;;;;17.90;78.55;94683.75;5090844;28;20504;-74
2023/07/06 02:32:40;;;;;;;9.80;6.60;;;;;;;17.83;78.37;94660.81;5088553;28;20032;-74
2023/07/06 02:35:08;;;;;;;7.57;6.75;;;;;;;17.90;78.42;94675.88;5090033;28;20395;-74
2023/07/06 02:37:33;;;;;;;9.00;6.97;;;;;;;17.84;78.66;94665.06;5055201;28;20047;-74
2023/07/06 02:40:00;;;;;;;9.65;6.82;;;;;;;17.87;78.30;94671.78;5073186;28;20032;-74
2023/07/06 02:42:26;;;;;;;10.30;7.03;;;;;;;17.78;78.62;94665.75;5073366;28;20573;-74
2023/07/06 02:44:51;;;;;;;8.70;6.68;;;;;;;17.84;78.46;94659.81;5073000;28;20040;-74
2023/07/06 02:47:17;;;;;;;8.32;6.60;;;;;;;17.81;78.36;94652.28;5071200;28;20115;-75
2023/07/06 02:49:42;;;;;;;7.53;6.30;;;;;;;17.89;78.56;94661.91;5072363;28;20048;-74
2023/07/06 02:52:08;;;;;;;7.60;6.28;;;;;;;17.94;78.39;94670.09;5070806;28;20482;-74
2023/07/06 02:54:33;;;;;;;7.93;7.13;;;;;;;18.04;77.95;94669.84;5052781;28;20101;-74
2023/07/06 02:57:00;;;;;;;8.70;6.90;;;;;;;17.99;78.14;94657.22;5082042;28;20027;-74
2023/07/06 02:59:28;;;;;;;7.78;6.53;;;;;;;17.98;78.24;94657.41;5073240;28;20036;-74
2023/07/06 03:01:54;;;;;;;7.07;6.32;;;;;;;17.94;78.48;94656.97;5086166;28;20485;-74
2023/07/06 03:04:19;;;;;;;8.20;6.45;;;;;;;18.05;78.35;94660.94;5071240;28;20039;-74
2023/07/06 03:06:45;;;;;;;8.98;6.45;;;;;;;18.07;78.32;94656.34;5066666;28;20057;-75
2023/07/06 03:09:10;;;;;;;7.30;5.90;;;;;;;18.18;77.92;94647.22;5069798;28;20032;-75
2023/07/06 03:11:36;;;;;;;9.25;6.35;;;;;;;18.20;77.73;94656.56;5069421;28;20052;-74
2023/07/06 03:14:03;;;;;;;8.15;6.15;;;;;;;18.18;77.94;94661.19;5053683;28;20425;-74
2023/07/06 03:16:38;;;;;;;7.43;6.50;;;;;;;18.17;77.70;94661.38;5069288;28;20025;-74
2023/07/06 03:19:04;;;;;;;6.78;5.72;;;;;;;18.21;77.28;94658.19;5069465;28;20037;-75
2023/07/06 03:21:29;;;;;;;8.20;6.20;;;;;;;17.95;77.63;94627.03;5070102;28;20046;-74
2023/07/06 03:23:55;;;;;;;6.82;5.97;;;;;;;18.09;77.74;94664.88;5066885;28;20509;-75
2023/07/06 03:26:21;;;;;;;7.05;6.32;;;;;;;18.04;78.25;94661.97;5053622;28;20094;-75
2023/07/06 03:28:47;;;;;;;8.75;7.28;;;;;;;17.98;78.84;94658.22;5069033;28;20029;-74
2023/07/06 03:31:14;;;;;;;8.93;8.02;;;;;;;18.08;79.28;94658.00;5056286;28;20552;-74
2023/07/06 03:33:42;;;;;;;9.40;7.95;;;;;;;18.04;78.82;94648.81;5052515;28;20514;-74
2023/07/06 03:36:07;;;;;;;12.85;7.53;;;;;;;18.23;78.33;94655.41;5085185;28;20059;-75
2023/07/06 03:38:35;;;;;;;9.73;7.15;;;;;;;18.17;78.49;94650.88;5070701;28;20068;-74
2023/07/06 03:41:04;;;;;;;9.85;7.57;;;;;;;18.15;78.73;94647.59;5073021;28;20470;-74
2023/07/06 03:43:30;;;;;;;12.18;8.05;;;;;;;18.26;78.73;94650.59;5072912;28;20037;-75
2023/07/06 03:45:55;;;;;;;14.82;8.02;;;;;;;18.37;78.10;94638.03;5077216;28;20032;-74
2023/07/06 03:48:21;;;;;;;11.82;8.05;;;;;;;18.49;77.55;94640.03;5089558;28;20028;-75
2023/07/06 03:50:52;;;;;;;9.52;7.82;;;;;;;18.49;77.38;94634.75;5093015;28;20111;-75
2023/07/06 03:53:21;;;;;;;11.65;7.57;;;;;;;18.45;77.57;94637.94;5091451;28;20032;-75
2023/07/06 03:55:47;;;;;;;10.80;7.50;;;;;;;18.35;77.80;94632.13;5076569;28;20036;-75
2023/07/06 03:58:12;;;;;;;9.48;7.57;;;;;;;18.50;77.44;94646.13;5059440;28;20085;-75
2023/07/06 04:00:38;;;;;;;8.70;7.47;;;;;;;18.27;78.36;94635.63;5074522;28;20090;-74
2023/07/06 04:03:04;;;;;;;11.70;8.23;;;;;;;18.21;79.43;94644.25;5090416;28;20024;-74
2023/07/06 04:05:32;;;;;;;10.88;8.55;;;;;;;18.25;79.09;94643.72;5091297;28;20024;-75
2023/07/06 04:08:10;;;;;;;11.60;9.32;;;;;;;18.15;79.23;94643.13;5055515;28;20048;-75
2023/07/06 04:10:36;;;;;;;14.25;9.60;;;;;;;18.13;79.27;94653.00;5061815;28;20404;-75
2023/07/06 04:13:01;;;;;;;13.07;9.25;;;;;;;18.17;79.38;94664.00;5074539;28;20024;-75
2023/07/06 04:15:27;;;;;;;13.20;9.27;;;;;;;18.21;79.27;94666.09;5038791;28;20253;-74
2023/07/06 04:17:53;;;;;;;10.43;8.80;;;;;;;18.55;78.61;94667.41;5077341;28;20040;-74
2023/07/06 04:20:21;;;;;;;9.68;8.57;;;;;;;18.67;77.65;94671.25;5069508;28;20024;-74
2023/07/06 04:22:48;;;;;;;12.13;8.68;;;;;;;18.71;77.49;94679.59;5059842;28;20033;-75
2023/07/06 04:25:19;;;;;;;11.30;8.95;;;;;;;18.67;77.62;94679.16;5040541;28;20036;-74
2023/07/06 04:27:44;;;;;;;10.52;8.48;;;;;;;18.85;76.77;94675.38;5085545;28;20071;-74
2023/07/06 04:30:14;;;;;;;10.82;9.38;;;;;;;18.66;77.84;94664.34;5057769;28;20064;-75
2023/07/06 04:32:41;;;;;;;10.57;9.18;;;;;;;18.86;77.43;94667.31;5087205;28;20054;-74
2023/07/06 04:35:09;;;;;;;10.43;8.00;;;;;;;18.83;76.85;94657.13;5084450;28;20021;-76
2023/07/06 04:37:35;;;;;;;9.07;7.20;;;;;;;19.00;76.23;94680.63;5055514;28;20119;-77
2023/07/06 04:40:01;;;;;;;7.68;6.88;;;;;;;19.02;75.00;94662.84;5083727;28;20043;-76
2023/07/06 04:42:28;;;;;;;7.22;6.45;;;;;;;19.07;75.51;94673.66;5056862;28;20070;-76
2023/07/06 04:44:54;;;;;;;8.65;6.50;;;;;;;19.09;76.63;94669.03;5077077;28;20444;-74
2023/07/06 04:47:23;;;;;;;9.65;6.55;;;;;;;19.05;76.70;94670.38;5085010;28;20481;-75
2023/07/06 04:49:50;;;;;;;9.48;6.60;;;;;;;19.36;76.26;94673.63;5069692;28;20448;-75
2023/07/06 04:52:16;;;;;;;7.43;6.72;;;;;;;19.40;75.90;94660.91;5070408;28;20028;-75
2023/07/06 04:54:41;;;;;;;11.57;6.30;;;;;;;19.47;75.79;94680.22;5072010;28;20060;-75
2023/07/06 04:57:07;;;;;;;6.78;6.13;;;;;;;19.69;74.99;94669.75;5054582;28;20107;-75
2023/07/06 04:59:33;;;;;;;9.13;6.05;;;;;;;19.69;74.84;94646.84;5069961;28;20044;-75
2023/07/06 05:01:59;;;;;;;8.05;6.30;;;;;;;20.00;74.04;94661.53;5086604;28;20123;-75
2023/07/06 05:04:25;;;;;;;7.80;6.63;;;;;;;20.27;74.15;94647.59;5071326;28;20337;-75
2023/07/06 05:06:50;;;;;;;9.77;6.88;;;;;;;20.60;72.49;94667.34;5087573;28;20611;-75
2023/07/06 05:09:16;;;;;;;9.35;7.18;;;;;;;20.78;70.71;94667.66;5087414;28;20123;-75
2023/07/06 05:11:41;;;;;;;10.75;6.57;;;;;;;20.96;70.04;94659.25;5083756;28;20085;-75
2023/07/06 05:14:07;;;;;;;8.27;6.50;;;;;;;21.08;68.85;94660.31;5085439;28;20028;-75
2023/07/06 05:16:32;;;;;;;8.35;7.07;;;;;;;21.28;67.79;94663.06;5068074;28;20127;-75
2023/07/06 05:18:58;;;;;;;9.13;7.47;;;;;;;21.47;67.60;94666.03;5086192;28;20477;-75
2023/07/06 05:21:24;;;;;;;8.45;6.60;;;;;;;21.50;66.49;94661.16;5063897;28;20028;-75
2023/07/06 05:23:50;;;;;;;8.93;6.90;;;;;;;21.58;65.95;94649.59;5066841;28;20684;-75
2023/07/06 05:26:15;;;;;;;8.05;7.07;;;;;;;21.95;65.51;94668.59;5071310;28;20024;-75
2023/07/06 05:28:41;;;;;;;9.77;7.35;;;;;;;21.90;64.95;94671.00;5068192;28;20532;-75
2023/07/06 05:31:06;;;;;;;8.10;7.22;;;;;;;21.97;65.40;94677.94;5084105;28;20035;-75
2023/07/06 05:33:32;;;;;;;8.32;7.25;;;;;;;22.06;65.29;94676.78;5085654;28;20024;-75
2023/07/06 05:35:58;;;;;;;11.45;7.18;;;;;;;22.11;64.93;94678.78;5086559;28;20048;-75
2023/07/06 05:38:25;;;;;;;10.32;7.15;;;;;;;22.25;64.49;94653.19;5063722;28;20386;-75
2023/07/06 05:40:50;;;;;;;7.63;6.93;;;;;;;22.52;64.59;94675.19;5059610;28;20347;-75
2023/07/06 05:43:18;;;;;;;8.07;6.72;;;;;;;22.92;62.40;94683.91;5054241;28;20039;-75
2023/07/06 05:45:45;;;;;;;7.85;6.07;;;;;;;22.92;62.14;94691.03;5060300;28;20031;-76
2023/07/06 05:48:10;;;;;;;10.52;6.93;;;;;;;22.93;61.92;94677.59;5068618;28;20465;-75
2023/07/06 05:50:36;;;;;;;8.32;6.65;;;;;;;23.11;61.25;94671.66;5067934;28;20107;-75
2023/07/06 05:53:02;;;;;;;9.75;7.72;;;;;;;22.87;62.04;94678.44;5066968;28;20036;-75
2023/07/06 05:55:29;;;;;;;10.57;7.25;;;;;;;23.01;62.20;94679.22;5052703;28;20106;-75
2023/07/06 05:57:55;;;;;;;11.02;8.25;;;;;;;22.90;61.83;94678.00;5083507;28;20046;-75
2023/07/06 06:00:20;;;;;;;9.90;7.47;;;;;;;22.99;61.39;94689.22;5085910;28;20103;-75
2023/07/06 06:02:45;;;;;;;8.50;7.20;;;;;;;23.56;60.20;94689.47;5085552;28;20086;-75
2023/07/06 06:05:14;;;;;;;11.25;8.00;;;;;;;23.31;59.74;94668.16;5085302;28;20039;-75
2023/07/06 06:07:43;;;;;;;12.02;7.88;;;;;;;23.44;60.58;94689.31;5068118;28;20056;-75
2023/07/06 06:10:10;;;;;;;8.88;7.15;;;;;;;23.56;60.51;94686.81;5071210;28;20289;-75
2023/07/06 06:12:36;;;;;;;10.98;7.43;;;;;;;23.76;59.71;94697.34;5081434;28;20024;-75
2023/07/06 06:15:02;;;;;;;7.65;6.65;;;;;;;23.75;59.21;94685.13;5085441;28;20059;-75
2023/07/06 06:17:28;;;;;;;10.80;7.70;;;;;;;23.50;60.14;94685.81;5086855;28;20023;-75
2023/07/06 06:19:54;;;;;;;8.88;7.10;;;;;;;23.41;60.24;94661.38;5055726;28;20497;-75
2023/07/06 06:22:19;;;;;;;10.93;7.38;;;;;;;23.64;59.96;94689.22;5089297;28;20032;-75
2023/07/06 06:24:45;;;;;;;8.23;6.78;;;;;;;23.55;59.54;94687.84;5089181;28;20020;-75
2023/07/06 06:27:11;;;;;;;8.35;5.90;;;;;;;23.82;59.28;94681.44;5072940;28;20036;-75
2023/07/06 06:29:37;;;;;;;7.82;6.43;;;;;;;23.72;58.85;94686.38;5072759;28;20032;-76
2023/07/06 06:32:03;;;;;;;9.25;6.28;;;;;;;24.13;57.92;94681.66;5089548;28;20405;-75
2023/07/06 06:34:28;;;;;;;8.63;6.00;;;;;;;24.32;57.00;94686.00;5089991;28;20506;-76
2023/07/06 06:36:55;;;;;;;8.50;5.95;;;;;;;24.14;56.59;94684.09;5072960;28;20096;-75
2023/07/06 06:39:21;;;;;;;7.13;5.53;;;;;;;23.97;56.91;94688.28;5061606;28;20032;-75
2023/07/06 06:41:47;;;;;;;11.27;6.88;;;;;;;23.79;58.91;94679.19;5087353;28;20093;-75
2023/07/06 06:44:12;;;;;;;9.85;6.57;;;;;;;23.81;58.77;94661.22;5067609;28;20498;-75
2023/07/06 06:46:38;;;;;;;8.05;6.45;;;;;;;24.15;57.38;94679.59;5052712;28;20036;-75
2023/07/06 06:49:03;;;;;;;9.30;6.50;;;;;;;24.06;57.81;94666.56;5071191;28;20031;-75
2023/07/06 06:51:29;;;;;;;10.35;6.80;;;;;;;24.41;56.16;94666.16;5069313;28;20037;-75
2023/07/06 06:53:55;;;;;;;9.65;6.90;;;;;;;24.58;56.91;94665.63;5052709;28;20025;-75
2023/07/06 06:56:22;;;;;;;8.10;6.25;;;;;;;24.84;55.85;94659.25;5073108;28;20028;-75
2023/07/06 06:58:48;;;;;;;7.88;6.20;;;;;;;24.97;55.68;94661.81;5089711;28;20024;-76
2023/07/06 07:04:35;;;;;;;8.70;7.45;;;;;;;24.41;56.38;94660.84;5081427;28;20066;-75
2023/07/06 12:04:02;;;;;;;9.75;7.20;;;;;;;24.12;65.84;94659.59;4993618;28;20060;-77
2023/07/06 12:06:30;;;;;;;8.65;7.75;;;;;;;24.00;66.89;94663.97;4995327;28;20113;-76
2023/07/06 12:08:58;;;;;;;8.75;7.30;;;;;;;23.97;66.24;94673.16;4961369;28;20042;-76
2023/07/06 12:11:24;;;;;;;7.78;6.50;;;;;;;23.73;64.35;94695.13;4961349;28;20034;-73
2023/07/06 12:13:53;;;;;;;11.88;5.43;;;;;;;23.03;62.03;94693.09;4961085;28;20034;-73
2023/07/06 12:16:19;;;;;;;4.82;4.32;;;;;;;;;;4961659;28;20124;-74
2023/07/06 12:18:46;;;;;;;6.15;4.78;;;;;;;22.57;62.82;94691.28;4976924;28;20038;-73
2023/07/06 12:21:39;;;;;;;6.10;4.53;;;;;;;22.30;63.10;94701.84;4976884;28;20046;-74
2023/07/06 12:24:06;;;;;;;6.45;4.38;;;;;;;22.26;62.93;94702.47;5005731;28;20413;-72
2023/07/06 12:26:32;;;;;;;6.35;4.47;;;;;;;22.22;63.91;94715.25;4980045;28;20100;-73
2023/07/06 12:29:02;;;;;;;6.10;4.30;;;;;;;22.36;63.39;94712.63;4978985;28;20496;-71
2023/07/06 12:31:28;;;;;;;6.28;4.22;;;;;;;22.20;63.43;94717.28;4979449;28;20223;-76
2023/07/06 12:33:55;;;;;;;6.18;4.55;;;;;;;22.37;63.24;94708.97;4979063;28;20074;-76
2023/07/06 12:36:21;;;;;;;4.88;4.35;;;;;;;22.49;62.83;94699.44;4978627;28;20041;-76
2023/07/06 12:38:49;;;;;;;5.43;4.38;;;;;;;22.66;62.69;94692.69;4978964;28;20119;-75
2023/07/06 12:41:19;;;;;;;5.78;4.40;;;;;;;22.71;61.50;94692.91;4978094;28;20096;-75
2023/07/06 12:43:45;;;;;;;5.70;4.60;;;;;;;22.83;63.20;94697.56;4979821;28;20061;-74
2023/07/06 12:46:11;;;;;;;6.10;4.60;;;;;;;22.89;63.57;94721.38;4979578;28;20041;-74
2023/07/06 12:48:41;;;;;;;6.80;4.70;;;;;;;22.85;64.40;94743.19;4978879;28;20096;-74
2023/07/06 12:51:10;;;;;;;7.07;4.97;;;;;;;22.77;64.50;94722.22;5011613;28;20026;-78
2023/07/06 12:53:36;;;;;;;5.53;4.93;;;;;;;23.07;63.96;94734.03;4979977;28;20042;-77
2023/07/06 12:56:13;;;;;;;6.05;5.45;;;;;;;23.01;64.04;94726.09;4994728;28;20033;-76
2023/07/06 12:58:44;;;;;;;5.80;4.88;;;;;;;22.92;63.17;94710.38;4978734;28;20045;-76
2023/07/06 13:01:19;;;;;;;6.57;4.57;;;;;;;23.02;65.39;94731.19;4995775;28;20116;-77
2023/07/06 13:03:59;;;;;;;7.22;4.72;;;;;;;23.08;65.35;94729.56;5013054;28;20047;-78
2023/07/06 13:06:25;;;;;;;6.97;4.75;;;;;;;22.79;64.39;94689.22;5005391;28;20038;-77
2023/07/06 13:09:01;;;;;;;6.22;5.00;;;;;;;22.92;67.17;94714.88;4991264;28;20497;-75
2023/07/06 13:11:26;;;;;;;5.47;4.50;;;;;;;22.88;63.99;94709.19;4992354;28;20044;-74
2023/07/06 13:13:56;;;;;;;6.97;4.70;;;;;;;22.91;64.03;94710.59;5008923;28;20407;-78
2023/07/06 13:16:21;;;;;;;5.43;4.20;;;;;;;22.68;65.36;94697.81;5008398;28;20050;-77
2023/07/06 13:18:47;;;;;;;5.95;4.43;;;;;;;22.74;67.91;94710.22;4978345;28;20042;-74
2023/07/06 13:21:15;;;;;;;7.70;4.28;;;;;;;22.61;68.91;94696.97;5009182;28;20038;-74
2023/07/06 13:23:42;;;;;;;5.10;4.60;;;;;;;22.54;67.65;94694.34;4993421;28;20057;-74
2023/07/06 13:26:07;;;;;;;5.25;4.70;;;;;;;22.29;68.84;94684.34;5009701;28;20518;-74
2023/07/06 13:28:34;;;;;;;5.70;4.82;;;;;;;22.19;69.60;94698.97;4992749;28;20022;-74
2023/07/06 13:31:00;;;;;;;5.35;4.68;;;;;;;22.26;71.65;94692.69;5008353;28;20038;-73
2023/07/06 13:33:27;;;;;;;6.00;4.85;;;;;;;22.06;71.54;94692.63;4993269;28;20029;-74
2023/07/06 13:35:53;;;;;;;5.72;4.40;;;;;;;21.84;69.35;94691.97;4995041;28;20457;-73
2023/07/06 13:38:18;;;;;;;5.03;4.53;;;;;;;21.97;70.84;94703.59;4994874;28;20045;-74
2023/07/06 13:40:48;;;;;;;6.95;4.95;;;;;;;21.89;70.60;94709.06;4977901;28;20535;-74
2023/07/06 13:43:14;;;;;;;11.05;6.45;;;;;;;21.70;69.77;94708.78;5010456;28;20048;-74
2023/07/06 13:45:40;;;;;;;12.38;6.13;;;;;;;21.63;68.48;94703.50;4994218;28;20026;-74
2023/07/06 13:48:07;;;;;;;8.02;5.53;;;;;;;21.62;66.07;94703.69;4994119;28;20026;-73
2023/07/06 13:50:32;;;;;;;6.13;4.43;;;;;;;21.76;69.60;94702.72;4994640;28;20036;-74
2023/07/06 13:52:58;;;;;;;11.48;8.05;;;;;;;21.92;70.38;94698.06;5012310;28;20034;-74
2023/07/06 13:55:28;;;;;;;6.95;5.90;;;;;;;21.80;70.23;94696.00;4994411;28;20034;-74
2023/07/06 13:57:54;;;;;;;5.53;4.72;;;;;;;21.89;70.25;94709.06;4993709;28;20088;-74
2023/07/06 14:00:19;;;;;;;6.82;4.47;;;;;;;21.83;68.92;94714.13;4994448;28;20495;-73
2023/07/06 14:02:48;;;;;;;8.70;5.47;;;;;;;21.82;69.47;94712.50;4977856;28;20522;-73
2023/07/06 14:05:14;;;;;;;5.07;4.55;;;;;;;21.79;68.05;94699.69;5022955;28;20095;-73
2023/07/06 14:07:42;;;;;;;5.05;3.83;;;;;;;21.86;66.92;94663.47;5030062;28;20122;-73
2023/07/06 14:10:08;;;;;;;6.32;4.15;;;;;;;22.11;67.51;94689.38;5014260;28;20033;-73
2023/07/06 14:12:33;;;;;;;4.78;3.78;;;;;;;21.90;67.21;94689.53;4997549;28;20056;-73
2023/07/06 14:14:58;;;;;;;6.03;4.00;;;;;;;21.89;66.33;94675.50;5027885;28;20034;-73
2023/07/06 14:17:24;;;;;;;4.00;3.35;;;;;;;21.93;64.98;94679.38;5026241;28;20481;-74
2023/07/06 14:19:51;;;;;;;5.18;3.50;;;;;;;22.03;65.71;94684.28;5013648;28;20025;-73
2023/07/06 14:22:16;;;;;;;5.35;3.47;;;;;;;21.93;61.24;94681.22;5009905;28;20030;-73
2023/07/06 14:24:42;;;;;;;5.43;3.83;;;;;;;22.03;64.70;94685.06;5005505;28;20044;-73
2023/07/06 14:27:09;;;;;;;4.65;3.58;;;;;;;21.97;65.63;94682.44;4997165;28;20036;-74
2023/07/06 14:29:35;;;;;;;12.73;4.50;;;;;;;22.00;65.32;94690.78;4997453;28;20124;-73
2023/07/06 14:32:00;;;;;;;4.13;3.72;;;;;;;22.04;66.75;94689.38;5031238;28;20032;-72
2023/07/06 14:34:25;;;;;;;7.07;3.78;;;;;;;22.38;66.98;94697.38;4995973;28;20033;-71
2023/07/06 14:36:51;;;;;;;6.88;4.25;;;;;;;22.21;65.35;94696.97;4981023;28;20087;-72
2023/07/06 14:39:19;;;;;;;5.38;3.83;;;;;;;22.21;64.94;94684.53;5013620;28;20518;-72
2023/07/06 14:41:45;;;;;;;7.00;3.92;;;;;;;22.35;64.36;94689.84;4997834;28;20033;-72
2023/07/06 14:44:10;;;;;;;5.75;3.78;;;;;;;22.25;64.69;94677.81;5012581;28;20181;-72
2023/07/06 14:46:35;;;;;;;6.18;3.60;;;;;;;22.32;65.47;94679.69;4996936;28;20411;-72
2023/07/06 14:49:01;;;;;;;4.78;3.92;;;;;;;22.29;64.40;94667.66;5031237;28;20471;-72
2023/07/06 14:51:26;;;;;;;6.32;3.65;;;;;;;22.28;64.04;94666.81;4995681;28;20025;-72
2023/07/06 14:53:52;;;;;;;5.60;4.05;;;;;;;22.15;63.83;94648.28;5013298;28;20040;-72
2023/07/06 14:56:18;;;;;;;4.60;4.00;;;;;;;22.16;64.41;94663.13;4997006;28;20032;-72
2023/07/06 14:58:45;;;;;;;5.60;4.20;;;;;;;22.07;64.05;94656.41;5013193;28;20103;-72
2023/07/06 15:01:10;;;;;;;6.20;4.25;;;;;;;22.15;64.43;94653.59;4995699;28;20040;-72
2023/07/06 15:03:35;;;;;;;5.10;4.30;;;;;;;22.15;64.63;94648.28;5013309;28;20037;-72
2023/07/06 15:06:04;;;;;;;6.80;4.80;;;;;;;22.09;65.13;94659.66;4996774;28;20049;-72
2023/07/06 15:08:30;;;;;;;5.15;4.35;;;;;;;22.16;64.07;94649.09;4997190;28;20060;-72
2023/07/06 15:10:56;;;;;;;6.50;4.70;;;;;;;22.09;64.70;94639.34;4996249;28;20037;-72
2023/07/06 15:13:21;;;;;;;7.68;4.50;;;;;;;22.20;65.34;94640.56;5010713;28;20053;-72
2023/07/06 15:15:46;;;;;;;8.27;4.75;;;;;;;22.26;66.86;94641.63;5012888;28;20029;-73
2023/07/06 15:18:12;;;;;;;6.65;4.45;;;;;;;22.34;67.24;94635.28;4995328;28;20033;-73
2023/07/06 15:20:37;;;;;;;5.88;4.60;;;;;;;22.27;67.50;94620.22;5012816;28;20049;-73
2023/07/06 15:23:03;;;;;;;6.45;4.72;;;;;;;22.29;67.66;94625.34;5029360;28;20466;-73
2023/07/06 15:25:28;;;;;;;6.28;4.60;;;;;;;22.44;67.64;94638.34;5012980;28;20045;-73
2023/07/06 15:27:54;;;;;;;7.03;4.43;;;;;;;22.50;65.79;94650.75;5011555;28;20037;-73
2023/07/06 15:30:19;;;;;;;7.85;4.43;;;;;;;22.82;65.73;94665.00;5030534;28;20029;-73
2023/07/06 15:32:44;;;;;;;5.95;4.22;;;;;;;22.91;65.72;94658.44;4993156;28;20034;-72
2023/07/06 15:35:10;;;;;;;4.95;4.45;;;;;;;23.02;64.89;94662.31;5012095;28;20018;-72
2023/07/06 15:37:35;;;;;;;4.90;4.40;;;;;;;23.02;64.38;94649.09;5031722;28;20041;-73
2023/07/06 15:40:01;;;;;;;5.72;4.63;;;;;;;23.03;64.65;94666.59;4984026;28;20026;-73
2023/07/06 15:42:27;;;;;;;6.10;4.50;;;;;;;23.11;64.44;94661.06;5034336;28;20021;-73
2023/07/06 15:44:52;;;;;;;8.32;4.95;;;;;;;23.09;64.84;94655.16;5016589;28;20039;-73
2023/07/06 15:47:18;;;;;;;6.40;4.45;;;;;;;23.28;64.73;94671.22;5015097;28;20026;-73
2023/07/06 15:49:43;;;;;;;5.28;4.10;;;;;;;23.26;64.05;94662.66;5034196;28;20026;-73
2023/07/06 15:52:08;;;;;;;5.50;4.05;;;;;;;23.33;63.20;94674.88;5016550;28;20476;-73
2023/07/06 15:54:34;;;;;;;5.63;3.92;;;;;;;23.27;61.85;94661.66;5033241;28;20492;-73
2023/07/06 15:57:00;;;;;;;4.38;3.85;;;;;;;23.37;61.62;94664.66;5032774;28;20030;-73
2023/07/06 15:59:25;;;;;;;4.72;3.72;;;;;;;23.44;62.20;94662.81;5000195;28;20033;-73
2023/07/06 16:01:51;;;;;;;4.75;3.60;;;;;;;23.46;61.83;94658.13;5016300;28;20037;-73
2023/07/06 16:04:16;;;;;;;5.97;3.80;;;;;;;23.49;63.32;94655.03;5030201;28;20037;-73
2023/07/06 16:06:43;;;;;;;6.72;4.68;;;;;;;23.55;63.45;94656.03;4996384;28;20026;-73
2023/07/06 16:09:11;;;;;;;5.20;4.10;;;;;;;23.51;62.21;94647.66;4996467;28;20074;-73
2023/07/06 16:11:36;;;;;;;7.93;4.13;;;;;;;23.59;62.60;94654.56;4996898;28;20026;-74
2023/07/06 16:14:02;;;;;;;6.60;4.18;;;;;;;23.67;62.09;94650.88;4995636;28;20419;-73
2023/07/06 16:16:28;;;;;;;7.15;4.05;;;;;;;23.75;60.92;94655.97;4995471;28;20492;-74
2023/07/06 16:18:53;;;;;;;9.77;4.30;;;;;;;23.78;61.06;94652.88;4979981;28;20038;-74
2023/07/06 16:21:18;;;;;;;8.38;4.18;;;;;;;23.80;60.91;94650.84;4996340;28;20034;-72
2023/07/06 16:23:45;;;;;;;5.95;4.43;;;;;;;23.88;60.55;94642.63;5000672;28;20460;-73
2023/07/06 16:26:12;;;;;;;7.15;4.80;;;;;;;23.83;60.66;94656.53;4996211;28;20109;-73
2023/07/06 16:28:39;;;;;;;5.80;4.22;;;;;;;23.89;60.31;94644.25;4994522;28;20125;-75
2023/07/06 16:31:05;;;;;;;6.78;4.47;;;;;;;24.24;58.61;94662.41;4994763;28;20492;-75